createdAt,value
2022-10-20T00:01:21.445Z,33.54
2022-10-20T00:03:48.691Z,32.04
2022-10-20T00:06:17.937Z,28.17
2022-10-20T00:08:46.809Z,29.75
2022-10-20T00:11:17.111Z,30.10
2022-10-20T00:13:46.054Z,28.77
2022-10-20T00:16:13.749Z,31.47
2022-10-20T00:18:41.361Z,30.33
2022-10-20T00:21:23.090Z,26.80
2022-10-20T00:23:49.986Z,27.62
2022-10-20T00:26:22.487Z,29.06
2022-10-20T00:28:49.446Z,28.94
2022-10-20T00:31:18.194Z,32.93
2022-10-20T00:33:46.422Z,30.03
2022-10-20T00:36:16.594Z,30.10
2022-10-20T00:38:44.759Z,34.29
2022-10-20T00:41:15.762Z,31.50
2022-10-20T00:44:13.351Z,31.52
2022-10-20T00:46:42.219Z,30.61
2022-10-20T00:49:16.266Z,29.76
2022-10-20T00:51:44.381Z,32.72
2022-10-20T00:54:16.090Z,29.40
2022-10-20T00:56:47.198Z,28.65
2022-10-20T00:59:18.725Z,30.22
2022-10-20T01:01:46.604Z,31.74
2022-10-20T01:04:16.058Z,29.72
2022-10-20T01:06:43.367Z,27.76
2022-10-20T01:09:10.430Z,29.38
2022-10-20T01:11:55.049Z,33.58
2022-10-20T01:14:24.562Z,31.98
2022-10-20T01:17:38.155Z,32.04
2022-10-20T01:20:35.822Z,31.92
2022-10-20T01:23:36.206Z,31.63
2022-10-20T01:26:33.570Z,31.89
2022-10-20T01:29:05.249Z,31.03
2022-10-20T01:31:48.551Z,29.22
2022-10-20T01:34:31.287Z,32.05
2022-10-20T01:37:28.247Z,30.03
2022-10-20T01:40:08.723Z,29.65
2022-10-20T01:42:38.346Z,31.01
2022-10-20T01:45:06.983Z,29.29
2022-10-20T01:47:36.597Z,31.13
2022-10-20T01:50:05.850Z,28.05
2022-10-20T01:52:33.438Z,28.14
2022-10-20T01:55:01.477Z,28.79
2022-10-20T01:58:07.166Z,28.25
2022-10-20T02:00:38.843Z,33.98
2022-10-20T02:03:32.189Z,31.39
2022-10-20T02:06:20.773Z,30.13
2022-10-20T02:08:52.711Z,33.12
2022-10-20T02:11:46.710Z,32.53
2022-10-20T02:14:17.282Z,30.98
2022-10-20T02:16:56.805Z,34.02
2022-10-20T02:19:26.482Z,32.52
2022-10-20T02:21:56.517Z,32.22
2022-10-20T02:24:28.934Z,32.28
2022-10-20T02:26:58.114Z,31.60
2022-10-20T02:29:32.758Z,30.05
2022-10-20T02:32:00.014Z,33.22
2022-10-20T02:34:27.974Z,32.46
2022-10-20T02:36:58.634Z,29.42
2022-10-20T02:39:26.173Z,30.34
2022-10-20T02:41:52.905Z,28.16
2022-10-20T02:44:19.638Z,31.46
2022-10-20T02:46:47.161Z,32.89
2022-10-20T02:49:13.873Z,30.70
2022-10-20T02:51:40.855Z,29.70
2022-10-20T02:54:07.601Z,28.86
2022-10-20T02:56:34.469Z,28.47
2022-10-20T02:59:02.220Z,31.52
2022-10-20T03:01:28.999Z,29.71
2022-10-20T03:03:59.663Z,30.24
2022-10-20T03:06:27.686Z,30.23
2022-10-20T03:08:54.424Z,29.65
2022-10-20T03:11:21.279Z,29.77
2022-10-20T03:13:48.383Z,28.96
2022-10-20T03:16:15.410Z,29.56
2022-10-20T03:18:42.201Z,28.42
2022-10-20T03:21:09.081Z,27.03
2022-10-20T03:23:35.801Z,30.63
2022-10-20T03:26:08.232Z,30.43
2022-10-20T03:28:35.145Z,29.39
2022-10-20T03:31:02.774Z,28.47
2022-10-20T03:33:29.400Z,26.08
2022-10-20T03:35:56.257Z,29.28
2022-10-20T03:38:23.287Z,27.86
2022-10-20T03:40:50.275Z,26.90
2022-10-20T03:43:17.887Z,26.83
2022-10-20T03:45:45.773Z,33.01
2022-10-20T03:48:13.020Z,29.79
2022-10-20T03:50:41.606Z,29.42
2022-10-20T03:53:11.853Z,30.52
2022-10-20T03:55:38.714Z,28.13
2022-10-20T03:58:05.428Z,25.98
2022-10-20T04:00:32.945Z,27.32
2022-10-20T04:02:59.635Z,27.56
2022-10-20T04:05:26.364Z,28.84
2022-10-20T04:07:53.038Z,26.41
2022-10-20T04:10:20.076Z,27.51
2022-10-20T04:12:47.121Z,28.75
2022-10-20T04:15:13.982Z,27.17
2022-10-20T04:17:40.706Z,27.54
2022-10-20T04:20:08.271Z,26.18
2022-10-20T04:22:35.338Z,28.01
2022-10-20T04:25:03.128Z,27.53
2022-10-20T04:27:29.849Z,31.14
2022-10-20T04:29:56.536Z,29.34
2022-10-20T04:32:23.324Z,26.96
2022-10-20T04:34:50.190Z,25.43
2022-10-20T04:37:18.041Z,26.31
2022-10-20T04:39:44.741Z,29.12
2022-10-20T04:42:11.502Z,25.32
2022-10-20T04:44:38.243Z,27.64
2022-10-20T04:47:05.238Z,28.97
2022-10-20T04:49:32.390Z,26.39
2022-10-20T04:52:01.212Z,26.08
2022-10-20T04:54:29.534Z,26.33
2022-10-20T04:56:56.508Z,27.32
2022-10-20T04:59:23.418Z,27.12
2022-10-20T05:01:50.536Z,30.74
2022-10-20T05:04:21.970Z,27.76
2022-10-20T05:06:50.337Z,28.23
2022-10-20T05:09:19.206Z,27.26
2022-10-20T05:11:46.958Z,25.67
2022-10-20T05:14:14.000Z,28.40
2022-10-20T05:16:40.731Z,28.07
2022-10-20T05:19:07.598Z,26.71
2022-10-20T05:21:34.699Z,26.31
2022-10-20T05:24:05.541Z,27.05
2022-10-20T05:26:37.099Z,28.22
2022-10-20T05:29:06.613Z,24.55
2022-10-20T05:31:44.044Z,26.78
2022-10-20T05:34:11.618Z,31.39
2022-10-20T05:36:39.050Z,26.87
2022-10-20T05:39:05.961Z,28.99
2022-10-20T05:41:37.864Z,27.94
2022-10-20T05:44:08.577Z,27.76
2022-10-20T05:46:42.857Z,29.30
2022-10-20T05:49:15.639Z,28.80
2022-10-20T05:51:43.235Z,29.25
2022-10-20T05:54:12.199Z,28.33
2022-10-20T05:56:39.442Z,32.97
2022-10-20T05:59:06.175Z,32.26
2022-10-20T06:01:49.517Z,31.22
2022-10-20T06:04:23.886Z,32.45
2022-10-20T06:06:52.751Z,30.35
2022-10-20T06:09:20.717Z,30.58
2022-10-20T06:11:48.151Z,31.38
2022-10-20T06:14:15.198Z,30.81
2022-10-20T06:16:41.928Z,31.79
2022-10-20T06:19:08.735Z,29.57
2022-10-20T06:21:37.024Z,32.06
2022-10-20T06:24:05.826Z,30.77
2022-10-20T06:26:38.461Z,27.43
2022-10-20T06:29:07.318Z,28.00
2022-10-20T06:31:39.132Z,29.02
2022-10-20T06:34:08.216Z,33.50
2022-10-20T06:36:39.331Z,31.28
2022-10-20T06:39:08.558Z,29.41
2022-10-20T06:41:35.950Z,29.10
2022-10-20T06:44:03.623Z,28.16
2022-10-20T06:46:36.005Z,32.35
2022-10-20T06:49:05.369Z,28.52
2022-10-20T06:51:34.332Z,28.73
2022-10-20T06:54:02.833Z,28.22
2022-10-20T06:56:32.578Z,32.76
2022-10-20T06:59:01.431Z,29.82
2022-10-20T07:01:30.810Z,28.25
2022-10-20T07:04:00.666Z,29.62
2022-10-20T07:06:36.217Z,28.45
2022-10-20T07:09:06.146Z,29.92
2022-10-20T07:11:33.513Z,29.39
2022-10-20T07:14:01.513Z,28.62
2022-10-20T07:16:31.798Z,28.91
2022-10-20T07:18:58.744Z,28.43
2022-10-20T07:21:32.243Z,30.47
2022-10-20T07:24:05.177Z,31.66
2022-10-20T07:26:35.242Z,29.20
2022-10-20T07:29:04.082Z,29.03
2022-10-20T07:31:35.151Z,26.54
2022-10-20T07:34:20.278Z,29.94
2022-10-20T07:36:50.574Z,29.23
2022-10-20T07:39:17.294Z,27.23
2022-10-20T07:41:48.395Z,27.76
2022-10-20T07:44:16.598Z,30.20
2022-10-20T07:46:43.623Z,30.79
2022-10-20T07:49:43.068Z,29.08
2022-10-20T07:51:57.273Z,27.62
2022-10-20T07:54:23.985Z,27.30
2022-10-20T07:56:50.801Z,26.80
2022-10-20T07:59:18.108Z,25.18
2022-10-20T08:01:44.931Z,25.18
2022-10-20T08:04:11.797Z,25.37
2022-10-20T08:06:39.072Z,26.28
2022-10-20T08:09:07.393Z,29.18
2022-10-20T08:11:35.831Z,26.68
2022-10-20T08:14:02.764Z,26.27
2022-10-20T08:16:34.986Z,26.55
2022-10-20T08:19:25.069Z,27.77
2022-10-20T08:21:52.386Z,29.25
2022-10-20T08:24:20.698Z,29.08
2022-10-20T08:26:49.611Z,27.28
2022-10-20T08:29:16.363Z,25.89
2022-10-20T08:31:44.682Z,28.56
2022-10-20T08:34:11.970Z,27.86
2022-10-20T08:36:38.810Z,28.43
2022-10-20T08:39:06.572Z,26.79
2022-10-20T08:41:55.203Z,27.77
2022-10-20T08:44:31.925Z,25.71
2022-10-20T08:47:01.337Z,26.28
2022-10-20T08:49:31.763Z,25.99
2022-10-20T08:51:58.999Z,26.74
2022-10-20T08:54:25.801Z,29.43
2022-10-20T08:56:52.834Z,30.32
2022-10-20T08:59:34.917Z,30.24
2022-10-20T09:02:04.038Z,26.72
2022-10-20T09:07:25.962Z,26.51
2022-10-20T09:09:57.224Z,26.65
2022-10-20T09:12:28.737Z,27.98
2022-10-20T09:14:57.999Z,25.35
2022-10-20T09:17:24.870Z,25.37
2022-10-20T09:19:55.834Z,27.47
2022-10-20T09:22:26.210Z,27.25
2022-10-20T09:24:57.171Z,26.33
2022-10-20T09:27:31.713Z,28.10
2022-10-20T09:29:58.549Z,28.99
2022-10-20T09:32:48.176Z,24.02
2022-10-20T09:35:15.053Z,24.45
2022-10-20T09:37:44.888Z,23.49
2022-10-20T09:40:16.341Z,23.14
2022-10-20T09:42:54.362Z,27.03
2022-10-20T09:45:51.351Z,25.08
2022-10-20T09:48:26.137Z,24.78
2022-10-20T09:50:56.186Z,24.75
2022-10-20T09:53:30.514Z,25.78
2022-10-20T09:55:57.470Z,26.93
2022-10-20T09:58:39.302Z,28.67
2022-10-20T10:01:14.827Z,26.88
2022-10-20T10:03:50.351Z,26.89
2022-10-20T10:06:22.547Z,25.58
2022-10-20T10:08:49.540Z,27.37
2022-10-20T10:11:19.292Z,24.14
2022-10-20T10:13:50.455Z,26.07
2022-10-20T10:16:20.497Z,24.69
2022-10-20T10:19:02.389Z,26.35
2022-10-20T10:21:43.031Z,24.87
2022-10-20T10:24:29.694Z,25.20
2022-10-20T10:26:57.068Z,25.42
2022-10-20T10:29:28.623Z,26.93
2022-10-20T10:32:15.689Z,23.46
2022-10-20T10:34:49.681Z,26.20
2022-10-20T10:37:17.727Z,24.47
2022-10-20T10:39:44.534Z,24.14
2022-10-20T10:42:37.142Z,25.03
2022-10-20T10:45:03.961Z,22.53
2022-10-20T10:47:56.352Z,23.84
2022-10-20T10:50:36.147Z,22.90
2022-10-20T10:53:11.589Z,22.81
2022-10-20T10:55:55.192Z,24.22
2022-10-20T10:58:34.288Z,23.76
2022-10-20T11:01:15.533Z,21.08
2022-10-20T11:04:22.157Z,21.77
2022-10-20T11:07:29.589Z,23.31
2022-10-20T11:10:02.455Z,23.45
2022-10-20T11:12:51.177Z,22.73
2022-10-20T11:15:27.496Z,23.81
2022-10-20T11:18:07.939Z,21.30
2022-10-20T11:20:56.533Z,24.74
2022-10-20T11:23:58.153Z,23.42
2022-10-20T11:26:37.231Z,21.81
2022-10-20T11:29:16.375Z,23.55
2022-10-20T11:31:58.913Z,23.76
2022-10-20T11:34:56.523Z,20.75
2022-10-20T11:37:31.601Z,22.81
2022-10-20T11:40:14.796Z,24.39
2022-10-20T11:42:52.725Z,22.66
2022-10-20T11:45:25.334Z,23.83
2022-10-20T11:48:10.750Z,24.32
2022-10-20T11:50:39.066Z,21.34
2022-10-20T11:53:34.463Z,20.77
2022-10-20T11:56:14.876Z,20.46
2022-10-20T11:59:09.174Z,21.64
2022-10-20T12:01:54.767Z,23.32
2022-10-20T12:04:45.277Z,22.13
2022-10-20T12:07:23.990Z,21.71
2022-10-20T12:10:24.522Z,23.45
2022-10-20T12:13:01.023Z,24.61
2022-10-20T12:15:28.248Z,21.90
2022-10-20T12:18:06.873Z,23.20
2022-10-20T12:20:37.579Z,22.25
2022-10-20T12:23:04.555Z,23.88
2022-10-20T12:25:31.233Z,22.43
2022-10-20T12:28:23.086Z,24.13
2022-10-20T12:31:07.111Z,20.87
2022-10-20T12:33:38.756Z,21.32
2022-10-20T12:36:14.817Z,20.40
2022-10-20T12:38:43.130Z,21.85
2022-10-20T12:41:12.478Z,21.77
2022-10-20T12:43:49.485Z,21.09
2022-10-20T12:46:21.811Z,22.34
2022-10-20T12:48:56.814Z,23.21
2022-10-20T12:51:37.003Z,19.84
2022-10-20T12:54:19.269Z,22.32
2022-10-20T12:56:46.328Z,20.18
2022-10-20T12:59:31.075Z,21.12
2022-10-20T13:02:10.018Z,24.01
2022-10-20T13:04:58.675Z,22.96
2022-10-20T13:07:47.128Z,21.93
2022-10-20T13:10:37.944Z,20.87
2022-10-20T13:13:04.620Z,23.46
2022-10-20T13:15:32.663Z,23.26
2022-10-20T13:18:03.962Z,20.46
2022-10-20T13:20:42.794Z,22.41
2022-10-20T13:23:17.784Z,22.30
2022-10-20T13:25:48.541Z,19.63
2022-10-20T13:28:30.909Z,21.07
2022-10-20T13:31:15.927Z,22.70
2022-10-20T13:34:03.978Z,21.93
2022-10-20T13:36:54.035Z,20.38
2022-10-20T13:39:42.202Z,21.89
2022-10-20T13:42:20.815Z,20.68
2022-10-20T13:45:34.425Z,20.99
2022-10-20T13:48:01.187Z,19.92
2022-10-20T13:50:32.872Z,20.03
2022-10-20T13:53:04.899Z,20.73
2022-10-20T13:55:59.391Z,22.93
2022-10-20T13:58:27.075Z,20.92
2022-10-20T14:01:07.584Z,21.29
2022-10-20T14:03:43.129Z,20.85
2022-10-20T14:06:28.214Z,20.95
2022-10-20T14:09:08.779Z,21.52
2022-10-20T14:11:35.591Z,20.72
2022-10-20T14:14:02.820Z,22.95
2022-10-20T14:16:31.612Z,21.08
2022-10-20T14:19:07.895Z,21.66
2022-10-20T14:21:46.822Z,21.84
2022-10-20T14:24:25.838Z,20.09
2022-10-20T14:29:32.354Z,20.07
2022-10-20T14:31:59.784Z,21.77
2022-10-20T14:34:31.251Z,20.28
2022-10-20T14:36:58.520Z,22.26
2022-10-20T14:39:39.623Z,21.71
2022-10-20T14:42:44.112Z,22.44
2022-10-20T14:45:24.866Z,22.88
2022-10-20T14:47:55.083Z,21.22
2022-10-20T14:50:28.083Z,23.18
2022-10-20T14:52:55.084Z,21.65
2022-10-20T14:55:35.263Z,23.14
2022-10-20T14:58:03.229Z,22.29
2022-10-20T15:00:33.197Z,21.83
2022-10-20T15:03:03.283Z,21.84
2022-10-20T15:05:40.695Z,21.91
2022-10-20T15:08:19.665Z,23.15
2022-10-20T15:10:46.711Z,26.71
2022-10-20T15:13:29.164Z,24.49
2022-10-20T15:16:00.726Z,25.40
2022-10-20T15:18:28.802Z,24.94
2022-10-20T15:20:56.652Z,25.92
2022-10-20T15:23:25.942Z,26.29
2022-10-20T15:26:06.273Z,25.41
2022-10-20T15:28:47.214Z,26.09
2022-10-20T15:31:13.925Z,25.05
2022-10-20T15:33:41.340Z,26.20
2022-10-20T15:36:20.193Z,24.40
2022-10-20T15:38:49.848Z,22.77
2022-10-20T15:41:19.997Z,25.76
2022-10-20T15:43:47.580Z,24.03
2022-10-20T15:46:16.386Z,23.18
2022-10-20T15:48:43.971Z,24.26
2022-10-20T15:51:20.867Z,23.87
2022-10-20T15:53:49.503Z,24.96
2022-10-20T15:56:17.574Z,24.93
2022-10-20T15:58:45.013Z,26.04
2022-10-20T16:01:16.927Z,24.86
2022-10-20T16:03:44.727Z,25.22
2022-10-20T16:06:15.979Z,26.06
2022-10-20T16:08:44.047Z,25.41
2022-10-20T16:11:11.856Z,25.51
2022-10-20T16:13:43.005Z,27.44
2022-10-20T16:16:17.702Z,26.57
2022-10-20T16:18:45.714Z,27.73
2022-10-20T16:21:12.539Z,26.98
2022-10-20T16:23:42.524Z,27.67
2022-10-20T16:26:13.007Z,27.00
2022-10-20T16:28:41.131Z,26.05
2022-10-20T16:31:11.389Z,26.05
2022-10-20T16:33:39.683Z,27.34
2022-10-20T16:36:11.083Z,28.02
2022-10-20T16:38:40.223Z,26.19
2022-10-20T16:41:11.286Z,25.29
2022-10-20T16:43:41.231Z,26.05
2022-10-20T16:46:11.260Z,26.92
2022-10-20T16:48:48.362Z,26.14
2022-10-20T16:51:16.838Z,28.65
2022-10-20T16:53:44.001Z,25.95
2022-10-20T16:56:15.400Z,25.51
2022-10-20T16:58:45.469Z,26.83
2022-10-20T17:01:13.705Z,25.62
2022-10-20T17:06:17.179Z,28.24
2022-10-20T17:08:44.425Z,26.70
2022-10-20T17:11:15.003Z,25.20
2022-10-20T17:13:42.129Z,25.40
2022-10-20T17:16:13.084Z,26.48
2022-10-20T17:18:41.425Z,25.41
2022-10-20T17:21:11.078Z,27.33
2022-10-20T17:23:42.671Z,25.19
2022-10-20T17:26:13.883Z,26.15
2022-10-20T17:28:42.041Z,25.20
2022-10-20T17:31:13.344Z,24.39
2022-10-20T17:33:42.834Z,26.22
2022-10-20T17:36:12.673Z,25.65
2022-10-20T17:38:42.270Z,27.06
2022-10-20T17:41:13.056Z,24.96
2022-10-20T17:43:41.586Z,25.03
2022-10-20T17:46:13.937Z,26.54
2022-10-20T17:48:42.168Z,26.63
2022-10-20T17:51:13.723Z,24.52
2022-10-20T17:53:45.509Z,24.02
2022-10-20T17:56:25.506Z,24.45
2022-10-20T17:58:52.224Z,25.45
2022-10-20T18:01:23.334Z,25.05
2022-10-20T18:03:58.190Z,26.49
2022-10-20T18:06:33.548Z,25.46
2022-10-20T18:09:04.513Z,24.11
2022-10-20T18:11:33.345Z,24.03
2022-10-20T18:14:00.470Z,27.75
2022-10-20T18:16:30.523Z,26.82
2022-10-20T18:18:59.102Z,26.42
2022-10-20T18:21:27.978Z,29.17
2022-10-20T18:24:02.199Z,29.63
2022-10-20T18:26:30.837Z,28.25
2022-10-20T18:28:59.339Z,26.15
2022-10-20T18:31:28.958Z,30.93
2022-10-20T18:34:02.558Z,27.53
2022-10-20T18:36:34.552Z,27.76
2022-10-20T18:39:01.475Z,27.77
2022-10-20T18:41:30.634Z,27.41
2022-10-20T18:43:59.915Z,25.88
2022-10-20T18:46:29.342Z,26.43
2022-10-20T18:48:58.042Z,27.93
2022-10-20T18:51:26.042Z,28.20
2022-10-20T18:53:58.093Z,26.74
2022-10-20T18:56:27.925Z,26.78
2022-10-20T18:59:00.158Z,26.13
2022-10-20T19:01:30.647Z,27.47
2022-10-20T19:03:58.979Z,25.49
2022-10-20T19:06:29.666Z,25.99
2022-10-20T19:09:00.713Z,24.88
2022-10-20T19:11:30.952Z,26.89
2022-10-20T19:13:58.696Z,25.56
2022-10-20T19:16:28.885Z,27.15
2022-10-20T19:18:57.631Z,25.73
2022-10-20T19:21:27.555Z,25.71
2022-10-20T19:24:20.004Z,24.97
2022-10-20T19:26:57.588Z,25.87
2022-10-20T19:29:39.405Z,25.62
2022-10-20T19:32:07.062Z,26.25
2022-10-20T19:34:41.460Z,24.90
2022-10-20T19:37:09.210Z,26.65
2022-10-20T19:39:40.344Z,24.87
2022-10-20T19:42:09.636Z,26.76
2022-10-20T19:44:37.192Z,25.88
2022-10-20T19:47:05.064Z,24.66
2022-10-20T19:49:32.191Z,24.54
2022-10-20T19:51:59.040Z,26.97
2022-10-20T19:54:26.860Z,25.10
2022-10-20T19:56:53.729Z,24.99
2022-10-20T19:59:20.630Z,24.79
2022-10-20T20:01:49.701Z,25.38
2022-10-20T20:04:16.391Z,26.28
2022-10-20T20:06:43.436Z,25.60
2022-10-20T20:09:13.293Z,24.18
2022-10-20T20:11:40.781Z,23.79
2022-10-20T20:14:15.645Z,23.81
2022-10-20T20:16:46.130Z,24.26
2022-10-20T20:19:14.132Z,23.80
2022-10-20T20:21:40.905Z,23.96
2022-10-20T20:24:14.204Z,24.67
2022-10-20T20:26:42.182Z,25.14
2022-10-20T20:29:10.942Z,23.87
2022-10-20T20:31:38.825Z,24.69
2022-10-20T20:34:05.686Z,25.55
2022-10-20T20:36:32.612Z,24.12
2022-10-20T20:39:00.211Z,23.29
2022-10-20T20:41:30.334Z,23.20
2022-10-20T20:44:02.913Z,23.58
2022-10-20T20:46:33.657Z,23.48
2022-10-20T20:49:01.716Z,25.49
2022-10-20T20:51:33.353Z,24.47
2022-10-20T20:54:01.078Z,25.19
2022-10-20T20:56:29.902Z,23.92
2022-10-20T20:58:58.057Z,24.69
2022-10-20T21:01:31.299Z,24.85
2022-10-20T21:04:01.291Z,24.66
2022-10-20T21:07:00.119Z,26.90
2022-10-20T21:09:17.935Z,27.93
2022-10-20T21:11:44.612Z,25.71
2022-10-20T21:14:12.547Z,26.75
2022-10-20T21:16:39.333Z,27.13
2022-10-20T21:19:10.523Z,24.45
2022-10-20T21:21:40.442Z,26.64
2022-10-20T21:24:07.353Z,27.45
2022-10-20T21:26:34.123Z,28.41
2022-10-20T21:29:01.085Z,26.60
2022-10-20T21:31:30.198Z,26.24
2022-10-20T21:34:00.637Z,26.69
2022-10-20T21:36:30.411Z,25.08
2022-10-20T21:38:59.667Z,25.97
2022-10-20T21:41:30.529Z,24.75
2022-10-20T21:43:59.778Z,25.53
2022-10-20T21:46:29.086Z,26.07
2022-10-20T21:49:02.385Z,24.69
2022-10-20T21:51:32.873Z,24.73
2022-10-20T21:54:02.137Z,25.34
2022-10-20T21:56:30.276Z,26.61
2022-10-20T21:58:57.771Z,26.68
2022-10-20T22:01:25.814Z,29.05
2022-10-20T22:03:54.047Z,27.90
2022-10-20T22:06:25.872Z,25.12
2022-10-20T22:08:55.379Z,23.89
2022-10-20T22:11:31.450Z,25.46
2022-10-20T22:13:59.266Z,24.68
2022-10-20T22:16:29.318Z,24.61
2022-10-20T22:18:57.997Z,24.47
2022-10-20T22:21:25.915Z,25.49
2022-10-20T22:23:58.069Z,26.08
2022-10-20T22:26:29.900Z,23.63
2022-10-20T22:28:59.169Z,24.08
2022-10-20T22:31:26.914Z,24.73
2022-10-20T22:33:56.406Z,25.81
2022-10-20T22:36:24.340Z,24.91
2022-10-20T22:38:51.271Z,24.37
2022-10-20T22:41:18.022Z,25.59
2022-10-20T22:43:44.797Z,24.68
2022-10-20T22:46:11.752Z,24.58
2022-10-20T22:48:38.659Z,24.02
2022-10-20T22:51:06.913Z,24.48
2022-10-20T22:53:33.863Z,24.73
2022-10-20T22:56:18.978Z,25.70
2022-10-20T22:58:46.190Z,24.93
2022-10-20T23:01:16.380Z,25.73
2022-10-20T23:03:45.202Z,24.62
2022-10-20T23:06:21.937Z,24.41
2022-10-20T23:08:50.746Z,24.83
2022-10-20T23:11:18.399Z,25.77
2022-10-20T23:13:45.945Z,26.16
2022-10-20T23:16:15.056Z,27.84
2022-10-20T23:18:41.919Z,26.45
2022-10-20T23:21:09.098Z,26.75
2022-10-20T23:23:37.575Z,26.06
2022-10-20T23:26:08.347Z,25.37
2022-10-20T23:28:36.597Z,25.01
2022-10-20T23:31:17.706Z,26.45
2022-10-20T23:33:46.239Z,26.70
2022-10-20T23:36:15.521Z,25.25
2022-10-20T23:38:44.753Z,26.81
2022-10-20T23:41:11.552Z,27.83
2022-10-20T23:43:38.346Z,25.48
2022-10-20T23:46:06.205Z,26.50
2022-10-20T23:48:33.946Z,25.52
2022-10-20T23:51:00.654Z,25.47
2022-10-20T23:53:27.668Z,28.03
2022-10-20T23:55:55.469Z,28.18
2022-10-20T23:58:23.280Z,26.01
